LHT8MR EDBM-EDDE
Flight info
| Callsign | LHT8MR |
|---|---|
| Flight time | 0h 16m |
| Altitude | 14000 |
| Route | MAG1G MAG M736 RELKO RELKO1V |
| Aircraft | A20N/M-SDE2E3FGHIRWXY/LB1 |
Departure
| Time | 2026-05-08 00:19 |
|---|---|
| Airport | Magdeburg City Airfield (EDBM) |
Arrival
| Time | 2026-05-08 00:35 |
|---|---|
| Airport | Erfurt-Weimar Airport (EDDE) |
| Time | Latitude | Longitude | Altitude | Speed | Heading |
|---|---|---|---|---|---|
| 2026-05-08 00:13 | 52.07694 | 11.62018 | 264 ft | 0 kts | 200° |
| 2026-05-08 00:16 | 52.07682 | 11.62011 | 264 ft | 3 kts | 200° |
| 2026-05-08 00:16 | 52.07648 | 11.61988 | 263 ft | 7 kts | 202° |
| 2026-05-08 00:16 | 52.07605 | 11.61964 | 263 ft | 5 kts | 195° |
| 2026-05-08 00:16 | 52.07567 | 11.61947 | 264 ft | 7 kts | 195° |
| 2026-05-08 00:17 | 52.07520 | 11.61926 | 267 ft | 7 kts | 195° |
| 2026-05-08 00:17 | 52.07471 | 11.61904 | 275 ft | 8 kts | 195° |
| 2026-05-08 00:17 | 52.07406 | 11.61874 | 274 ft | 12 kts | 196° |
| 2026-05-08 00:17 | 52.07369 | 11.61857 | 276 ft | 3 kts | 196° |
| 2026-05-08 00:18 | 52.07351 | 11.61858 | 278 ft | 1 kts | 136° |
| 2026-05-08 00:18 | 52.07352 | 11.61865 | 278 ft | 0 kts | 86° |
| 2026-05-08 00:18 | 52.07361 | 11.62232 | 272 ft | 92 kts | 88° |
| 2026-05-08 00:19 | 52.07386 | 11.63763 | 596 ft | 159 kts | 88° |
| 2026-05-08 00:19 | 52.07256 | 11.65703 | 1618 ft | 195 kts | 121° |
| 2026-05-08 00:19 | 52.05794 | 11.66651 | 1740 ft | 260 kts | 178° |
| 2026-05-08 00:19 | 52.04045 | 11.66986 | 3912 ft | 254 kts | 170° |
| 2026-05-08 00:20 | 52.02322 | 11.67453 | 5727 ft | 258 kts | 169° |
| 2026-05-08 00:20 | 52.00496 | 11.67921 | 7210 ft | 271 kts | 171° |
| 2026-05-08 00:20 | 51.98594 | 11.68417 | 8747 ft | 279 kts | 170° |
| 2026-05-08 00:20 | 51.96643 | 11.68897 | 10258 ft | 289 kts | 177° |
| 2026-05-08 00:21 | 51.94609 | 11.68528 | 11424 ft | 309 kts | 192° |
| 2026-05-08 00:21 | 51.92441 | 11.67678 | 12256 ft | 331 kts | 195° |
| 2026-05-08 00:21 | 51.90128 | 11.66663 | 12993 ft | 355 kts | 196° |
| 2026-05-08 00:21 | 51.87671 | 11.65564 | 13593 ft | 379 kts | 196° |
| 2026-05-08 00:22 | 51.85034 | 11.64396 | 13996 ft | 404 kts | 195° |
| 2026-05-08 00:22 | 51.82258 | 11.63185 | 14103 ft | 415 kts | 195° |
| 2026-05-08 00:22 | 51.79483 | 11.61987 | 14129 ft | 417 kts | 195° |
| 2026-05-08 00:22 | 51.76673 | 11.60781 | 14129 ft | 417 kts | 195° |
| 2026-05-08 00:23 | 51.73866 | 11.59578 | 14130 ft | 417 kts | 195° |
| 2026-05-08 00:23 | 51.71052 | 11.58374 | 14130 ft | 417 kts | 195° |
| 2026-05-08 00:23 | 51.68275 | 11.57187 | 14129 ft | 417 kts | 195° |
| 2026-05-08 00:23 | 51.65478 | 11.55993 | 14130 ft | 417 kts | 195° |
| 2026-05-08 00:24 | 51.62665 | 11.54794 | 14129 ft | 417 kts | 195° |
| 2026-05-08 00:24 | 51.59852 | 11.53596 | 14134 ft | 417 kts | 195° |
| 2026-05-08 00:24 | 51.57045 | 11.52401 | 14133 ft | 418 kts | 195° |
| 2026-05-08 00:24 | 51.54226 | 11.51203 | 14130 ft | 417 kts | 195° |
| 2026-05-08 00:25 | 51.51417 | 11.50010 | 14131 ft | 417 kts | 195° |
| 2026-05-08 00:25 | 51.48615 | 11.48822 | 14136 ft | 417 kts | 195° |
| 2026-05-08 00:25 | 51.45806 | 11.47632 | 14134 ft | 417 kts | 195° |
| 2026-05-08 00:25 | 51.42981 | 11.46438 | 14132 ft | 417 kts | 195° |
| 2026-05-08 00:26 | 51.40189 | 11.45259 | 14133 ft | 418 kts | 195° |
| 2026-05-08 00:26 | 51.37392 | 11.44080 | 14133 ft | 418 kts | 195° |
| 2026-05-08 00:26 | 51.34562 | 11.42888 | 14131 ft | 418 kts | 195° |
| 2026-05-08 00:26 | 51.31742 | 11.41702 | 14133 ft | 418 kts | 195° |
| 2026-05-08 00:27 | 51.28957 | 11.40531 | 14133 ft | 418 kts | 195° |
| 2026-05-08 00:27 | 51.26145 | 11.39351 | 14135 ft | 418 kts | 195° |
| 2026-05-08 00:27 | 51.23329 | 11.38170 | 14052 ft | 414 kts | 195° |
| 2026-05-08 00:27 | 51.20586 | 11.37023 | 13207 ft | 403 kts | 195° |
| 2026-05-08 00:28 | 51.17842 | 11.35892 | 12241 ft | 406 kts | 195° |
| 2026-05-08 00:28 | 51.15129 | 11.34773 | 11195 ft | 397 kts | 195° |
| 2026-05-08 00:28 | 51.12505 | 11.33691 | 9746 ft | 390 kts | 195° |
| 2026-05-08 00:28 | 51.09899 | 11.32607 | 8192 ft | 382 kts | 195° |
| 2026-05-08 00:29 | 51.07348 | 11.31532 | 6763 ft | 374 kts | 195° |
| 2026-05-08 00:29 | 51.04870 | 11.30467 | 5589 ft | 360 kts | 195° |
| 2026-05-08 00:29 | 51.02541 | 11.29442 | 4876 ft | 338 kts | 195° |
| 2026-05-08 00:29 | 51.00355 | 11.28469 | 4433 ft | 312 kts | 195° |
| 2026-05-08 00:30 | 50.98350 | 11.27575 | 4175 ft | 285 kts | 195° |
| 2026-05-08 00:30 | 50.96533 | 11.26750 | 4018 ft | 260 kts | 199° |
| 2026-05-08 00:30 | 50.95148 | 11.25159 | 3906 ft | 238 kts | 236° |
| 2026-05-08 00:30 | 50.94732 | 11.22788 | 3776 ft | 216 kts | 277° |
| 2026-05-08 00:31 | 50.95183 | 11.20668 | 3674 ft | 197 kts | 295° |
| 2026-05-08 00:31 | 50.95741 | 11.18745 | 3583 ft | 188 kts | 295° |
| 2026-05-08 00:31 | 50.96186 | 11.16837 | 3479 ft | 181 kts | 286° |
| 2026-05-08 00:31 | 50.96445 | 11.14936 | 3281 ft | 173 kts | 279° |
| 2026-05-08 00:32 | 50.96605 | 11.13102 | 3039 ft | 167 kts | 277° |
| 2026-05-08 00:32 | 50.96747 | 11.11301 | 2838 ft | 162 kts | 278° |
| 2026-05-08 00:32 | 50.96887 | 11.09540 | 2597 ft | 159 kts | 277° |
| 2026-05-08 00:32 | 50.97023 | 11.07839 | 2399 ft | 151 kts | 277° |
| 2026-05-08 00:33 | 50.97150 | 11.06239 | 2192 ft | 140 kts | 277° |
| 2026-05-08 00:33 | 50.97267 | 11.04771 | 2012 ft | 128 kts | 277° |
| 2026-05-08 00:33 | 50.97374 | 11.03427 | 1816 ft | 118 kts | 278° |
| 2026-05-08 00:33 | 50.97473 | 11.02188 | 1648 ft | 110 kts | 278° |
| 2026-05-08 00:34 | 50.97569 | 11.00989 | 1509 ft | 111 kts | 277° |
| 2026-05-08 00:34 | 50.97669 | 10.99727 | 1349 ft | 118 kts | 278° |
| 2026-05-08 00:34 | 50.97770 | 10.98418 | 1203 ft | 121 kts | 277° |
| 2026-05-08 00:34 | 50.97871 | 10.97131 | 1051 ft | 115 kts | 278° |
| 2026-05-08 00:35 | 50.97970 | 10.95987 | 1024 ft | 89 kts | 276° |
| 2026-05-08 00:35 | 50.98034 | 10.95172 | 1030 ft | 57 kts | 277° |
| 2026-05-08 00:35 | 50.98048 | 10.94893 | 1031 ft | 10 kts | 239° |
| 2026-05-08 00:35 | 50.97962 | 10.94889 | 1030 ft | 18 kts | 165° |
| 2026-05-08 00:36 | 50.97883 | 10.94937 | 1029 ft | 9 kts | 157° |
| 2026-05-08 00:36 | 50.97838 | 10.94976 | 1029 ft | 9 kts | 136° |
| 2026-05-08 00:36 | 50.97825 | 10.95102 | 1029 ft | 15 kts | 96° |
| 2026-05-08 00:36 | 50.97811 | 10.95303 | 1027 ft | 21 kts | 96° |
| 2026-05-08 00:37 | 50.97793 | 10.95553 | 1026 ft | 21 kts | 100° |
| 2026-05-08 00:37 | 50.97773 | 10.95748 | 1027 ft | 14 kts | 98° |
| 2026-05-08 00:37 | 50.97760 | 10.95891 | 1026 ft | 10 kts | 97° |
| 2026-05-08 00:38 | 50.97650 | 10.95974 | 1026 ft | 6 kts | 96° |
| 2026-05-08 00:38 | 50.97643 | 10.96020 | 1024 ft | 6 kts | 141° |
| 2026-05-08 00:38 | 50.97627 | 10.96017 | 1024 ft | 1 kts | 243° |
| 2026-05-08 00:38 | 50.97629 | 10.96013 | 1024 ft | 0 kts | 278° |
| 2026-05-08 00:39 | 50.97629 | 10.96012 | 1025 ft | 0 kts | 287° |